Time;durP1;ratioP1;P1;durP2;ratioP2;P2;SDS_P1;SDS_P2;PMS_P1;PMS_P2;Temp;Humidity;BMP_temperature;BMP_pressure;BME280_temperature;BME280_humidity;BME280_pressure;Samples;Min_cycle;Max_cycle;Signal;HPM_P1;HPM_P2
2023/05/17 00:00:52;;;;;;;4.00;1.87;;;8.70;99.90;;;;;;5010404;28;20237;-69
2023/05/17 00:03:17;;;;;;;2.37;1.50;;;8.60;99.90;;;;;;5009617;28;20440;-67
2023/05/17 00:05:43;;;;;;;1.80;1.70;;;8.40;99.90;;;;;;5009289;28;20437;-68
2023/05/17 00:08:09;;;;;;;5.07;1.80;;;8.30;99.90;;;;;;5009684;28;20659;-68
2023/05/17 00:10:34;;;;;;;3.63;1.90;;;8.20;99.90;;;;;;5007974;28;20221;-69
2023/05/17 00:13:00;;;;;;;6.33;1.83;;;8.10;99.90;;;;;;5008829;28;20218;-69
2023/05/17 00:15:25;;;;;;;2.57;1.40;;;8.00;99.90;;;;;;5008620;28;20223;-69
2023/05/17 00:17:51;;;;;;;6.63;2.10;;;8.00;99.90;;;;;;5002368;28;20264;-68
2023/05/17 00:20:16;;;;;;;5.57;2.17;;;8.00;99.90;;;;;;5004718;28;20294;-69
2023/05/17 00:22:44;;;;;;;5.50;1.83;;;8.00;99.90;;;;;;5011793;28;20179;-69
2023/05/17 00:25:10;;;;;;;2.30;1.80;;;8.10;99.90;;;;;;5012573;28;20213;-68
2023/05/17 00:27:35;;;;;;;6.47;2.20;;;8.20;99.90;;;;;;5013010;28;20469;-68
2023/05/17 00:30:01;;;;;;;2.77;1.50;;;8.20;99.90;;;;;;5010937;28;20598;-69
2023/05/17 00:32:26;;;;;;;4.07;2.50;;;8.20;99.90;;;;;;5011868;28;20331;-69
2023/05/17 00:34:52;;;;;;;4.70;2.47;;;8.30;99.90;;;;;;5012477;28;20195;-69
2023/05/17 00:37:17;;;;;;;2.87;1.80;;;8.30;99.90;;;;;;5007077;28;20267;-69
2023/05/17 00:39:43;;;;;;;4.10;1.77;;;8.30;99.90;;;;;;5011838;28;20635;-67
2023/05/17 00:42:10;;;;;;;3.70;1.87;;;8.40;99.90;;;;;;5014349;28;20178;-68
2023/05/17 00:44:35;;;;;;;7.50;2.23;;;8.40;99.90;;;;;;5014095;28;20375;-68
2023/05/17 00:47:01;;;;;;;5.13;1.90;;;8.30;99.90;;;;;;5018493;28;20966;-69
2023/05/17 00:49:28;;;;;;;3.17;1.70;;;8.30;99.90;;;;;;5019848;28;20210;-69
2023/05/17 00:51:54;;;;;;;5.50;1.60;;;8.40;99.90;;;;;;5023537;28;20440;-68
2023/05/17 00:54:20;;;;;;;2.80;2.20;;;8.30;99.90;;;;;;5015437;28;20445;-68
2023/05/17 00:56:46;;;;;;;2.53;1.50;;;8.40;99.90;;;;;;5013617;28;20441;-67
2023/05/17 00:59:12;;;;;;;1.77;1.30;;;8.40;99.90;;;;;;5011339;28;20479;-69
2023/05/17 01:01:41;;;;;;;3.60;2.00;;;8.50;99.90;;;;;;5011796;28;20576;-69
2023/05/17 01:04:07;;;;;;;2.40;1.57;;;8.40;99.90;;;;;;5010288;28;20942;-68
2023/05/17 01:06:34;;;;;;;2.70;1.50;;;8.20;99.90;;;;;;5012342;28;20437;-67
2023/05/17 01:09:00;;;;;;;4.90;1.80;;;8.20;99.90;;;;;;5012337;28;20441;-69
2023/05/17 01:11:42;;;;;;;2.00;1.70;;;8.20;99.90;;;;;;5013619;28;20438;-68
2023/05/17 01:14:35;;;;;;;5.97;2.20;;;8.20;99.90;;;;;;5009677;28;20214;-69
2023/05/17 01:17:21;;;;;;;2.60;1.87;;;8.10;99.90;;;;;;5005699;28;20560;-67
2023/05/17 01:20:06;;;;;;;4.13;1.60;;;8.00;99.90;;;;;;5009575;28;20539;-69
2023/05/17 01:22:37;;;;;;;2.13;1.30;;;7.90;99.90;;;;;;5013089;28;21022;-69
2023/05/17 01:25:28;;;;;;;3.10;1.60;;;7.90;99.90;;;;;;5012089;28;20442;-69
2023/05/17 01:27:57;;;;;;;2.80;1.73;;;7.90;99.90;;;;;;5019643;28;20438;-69
2023/05/17 01:30:25;;;;;;;14.20;2.37;;;8.00;99.90;;;;;;5011763;28;20833;-67
2023/05/17 01:32:54;;;;;;;1.50;1.40;;;7.90;99.90;;;;;;5009017;28;20440;-69
2023/05/17 01:35:20;;;;;;;2.17;1.57;;;7.90;99.90;;;;;;5009492;28;20472;-69
2023/05/17 01:37:45;;;;;;;5.43;2.23;;;7.90;99.90;;;;;;5009993;28;20520;-69
2023/05/17 01:40:11;;;;;;;2.00;1.80;;;8.00;99.90;;;;;;5004939;28;20230;-69
2023/05/17 01:42:40;;;;;;;1.80;1.70;;;8.00;99.90;;;;;;5007335;28;20184;-69
2023/05/17 01:45:06;;;;;;;3.53;1.30;;;8.00;99.90;;;;;;5011456;28;20345;-69
2023/05/17 01:47:49;;;;;;;2.10;1.70;;;7.90;99.90;;;;;;5008007;28;20810;-69
2023/05/17 01:50:20;;;;;;;5.07;2.00;;;7.90;99.90;;;;;;5010355;28;20462;-67
2023/05/17 01:52:50;;;;;;;3.03;1.73;;;7.80;99.90;;;;;;5005680;28;20789;-68
2023/05/17 01:55:27;;;;;;;2.27;1.60;;;7.90;99.90;;;;;;5008301;28;20447;-69
2023/05/17 01:57:56;;;;;;;4.80;1.73;;;7.80;99.90;;;;;;5014771;28;20519;-67
2023/05/17 02:00:24;;;;;;;5.90;1.90;;;7.80;99.90;;;;;;5009153;28;20461;-66
2023/05/17 02:02:49;;;;;;;5.17;1.63;;;7.80;99.90;;;;;;5009216;28;20445;-69
2023/05/17 02:05:15;;;;;;;3.60;1.53;;;7.80;99.90;;;;;;5011115;28;21549;-69
2023/05/17 02:07:40;;;;;;;5.07;2.33;;;7.80;99.90;;;;;;5012974;28;20232;-68
2023/05/17 02:10:06;;;;;;;4.23;2.10;;;7.70;99.90;;;;;;5017868;28;20214;-69
2023/05/17 02:12:32;;;;;;;3.03;1.63;;;7.70;99.90;;;;;;5009222;28;20715;-69
2023/05/17 02:14:57;;;;;;;4.20;3.30;;;7.70;99.90;;;;;;5008446;28;20445;-69
2023/05/17 02:17:23;;;;;;;2.70;1.77;;;7.70;99.90;;;;;;5010583;28;20214;-68
2023/05/17 02:19:48;;;;;;;5.20;1.87;;;7.60;99.90;;;;;;5007027;28;20218;-67
2023/05/17 02:22:14;;;;;;;1.97;1.67;;;7.50;99.90;;;;;;5008130;28;20557;-69
2023/05/17 02:24:40;;;;;;;5.00;1.60;;;7.50;99.90;;;;;;5011036;28;20645;-68
2023/05/17 02:27:05;;;;;;;2.70;1.70;;;7.40;99.90;;;;;;5009479;28;20198;-68
2023/05/17 02:29:32;;;;;;;3.87;1.80;;;7.40;99.90;;;;;;5009552;28;20198;-69
2023/05/17 02:31:57;;;;;;;4.30;2.00;;;7.50;99.90;;;;;;5010835;28;20194;-66
2023/05/17 02:34:23;;;;;;;3.10;1.70;;;7.40;99.90;;;;;;5006284;28;20442;-68
2023/05/17 02:36:49;;;;;;;3.63;1.70;;;7.40;99.90;;;;;;5010829;28;20189;-68
2023/05/17 02:39:14;;;;;;;4.27;2.43;;;7.40;99.90;;;;;;5008539;28;20202;-69
2023/05/17 02:41:40;;;;;;;6.03;2.30;;;7.40;99.90;;;;;;5010150;28;20580;-69
2023/05/17 02:44:05;;;;;;;2.70;1.60;;;7.20;99.90;;;;;;5009377;28;20208;-68
2023/05/17 02:46:32;;;;;;;2.80;1.80;;;7.20;99.90;;;;;;5010437;28;20194;-69
2023/05/17 02:48:57;;;;;;;5.37;1.90;;;7.20;99.90;;;;;;5004263;28;20194;-69
2023/05/17 02:51:23;;;;;;;5.30;2.40;;;7.10;99.90;;;;;;5010664;28;20814;-69
2023/05/17 02:53:48;;;;;;;3.00;1.70;;;7.00;99.90;;;;;;5009259;28;20258;-69
2023/05/17 02:56:14;;;;;;;3.17;1.60;;;6.90;99.90;;;;;;5010792;28;20653;-69
2023/05/17 02:58:40;;;;;;;4.00;2.03;;;6.90;99.90;;;;;;5010349;28;20234;-69
2023/05/17 03:01:05;;;;;;;5.37;2.07;;;6.70;99.90;;;;;;5004990;28;20723;-68
2023/05/17 03:03:31;;;;;;;3.00;1.67;;;6.70;99.90;;;;;;5004932;28;20220;-67
2023/05/17 03:06:00;;;;;;;4.90;1.80;;;6.70;99.90;;;;;;5009442;28;20179;-68
2023/05/17 03:08:26;;;;;;;2.37;2.10;;;6.60;99.90;;;;;;5011383;28;20619;-69
2023/05/17 03:10:51;;;;;;;3.20;2.13;;;6.50;99.90;;;;;;5010039;28;20631;-68
2023/05/17 03:13:17;;;;;;;6.80;1.97;;;6.50;99.90;;;;;;5009954;28;20186;-69
2023/05/17 03:15:42;;;;;;;4.10;1.93;;;6.50;99.90;;;;;;5004287;28;20182;-69
2023/05/17 03:18:08;;;;;;;7.23;2.40;;;6.40;99.90;;;;;;5008580;28;20222;-67
2023/05/17 03:20:33;;;;;;;2.70;1.40;;;6.40;99.90;;;;;;5003520;28;20215;-68
2023/05/17 03:22:59;;;;;;;3.30;2.27;;;6.40;99.90;;;;;;5009532;28;20578;-69
2023/05/17 03:25:24;;;;;;;4.80;1.93;;;6.40;99.90;;;;;;5010235;28;20190;-69
2023/05/17 03:27:50;;;;;;;2.63;2.20;;;6.50;99.90;;;;;;5013134;28;20182;-69
2023/05/17 03:30:15;;;;;;;2.60;1.97;;;6.30;99.90;;;;;;5008178;28;20206;-68
2023/05/17 03:32:41;;;;;;;3.20;2.43;;;6.20;99.90;;;;;;5010737;28;20182;-69
2023/05/17 03:35:07;;;;;;;2.20;1.80;;;6.10;99.90;;;;;;5008540;28;20187;-68
2023/05/17 03:37:33;;;;;;;4.63;2.40;;;6.10;99.90;;;;;;5010423;28;20730;-68
2023/05/17 03:39:58;;;;;;;2.90;2.60;;;6.10;99.90;;;;;;5009913;28;20453;-69
2023/05/17 03:42:24;;;;;;;3.30;1.90;;;6.10;99.90;;;;;;5001192;28;20191;-69
2023/05/17 03:44:50;;;;;;;3.43;1.97;;;6.10;99.90;;;;;;5008705;28;20649;-69
2023/05/17 03:47:16;;;;;;;2.90;1.90;;;6.10;99.90;;;;;;5010589;28;20210;-68
2023/05/17 03:49:42;;;;;;;2.50;2.00;;;6.00;99.90;;;;;;5009484;28;20492;-67
2023/05/17 03:52:07;;;;;;;3.53;1.83;;;5.90;99.90;;;;;;5010663;28;20618;-68
2023/05/17 03:54:32;;;;;;;2.10;1.90;;;6.00;99.90;;;;;;5009658;28;20430;-69
2023/05/17 03:56:58;;;;;;;5.83;1.90;;;5.90;99.90;;;;;;5012583;28;20273;-68
2023/05/17 03:59:23;;;;;;;3.40;1.80;;;6.00;99.90;;;;;;5010427;28;20207;-68
2023/05/17 04:01:49;;;;;;;4.63;1.80;;;6.00;99.90;;;;;;5010481;28;20953;-68
2023/05/17 04:04:14;;;;;;;3.50;2.10;;;6.00;99.90;;;;;;5013569;28;20233;-68
2023/05/17 04:06:40;;;;;;;7.30;2.30;;;5.90;99.90;;;;;;5014796;28;20183;-69
2023/05/17 04:09:07;;;;;;;2.70;1.97;;;6.10;99.90;;;;;;5020538;28;20179;-69
2023/05/17 04:11:33;;;;;;;3.93;2.47;;;6.10;99.90;;;;;;5013026;28;20205;-68
2023/05/17 04:13:58;;;;;;;3.20;2.20;;;6.10;99.90;;;;;;5013785;28;20437;-68
2023/05/17 04:16:24;;;;;;;4.63;2.50;;;6.10;99.90;;;;;;5014805;28;20262;-69
2023/05/17 04:18:51;;;;;;;4.80;2.60;;;6.10;99.90;;;;;;5014910;28;20257;-69
2023/05/17 04:21:17;;;;;;;3.07;2.73;;;6.10;99.90;;;;;;5009004;28;20727;-69
2023/05/17 04:23:43;;;;;;;5.13;2.70;;;6.30;99.90;;;;;;5016509;28;20433;-69
2023/05/17 04:26:09;;;;;;;3.10;2.47;;;6.40;99.90;;;;;;5024533;28;20451;-69
2023/05/17 04:28:34;;;;;;;3.83;2.50;;;6.50;99.90;;;;;;5026014;28;20628;-69
2023/05/17 04:31:00;;;;;;;2.93;2.50;;;6.60;99.90;;;;;;5024779;28;20461;-69
2023/05/17 04:33:26;;;;;;;5.13;2.83;;;6.40;99.90;;;;;;5012685;28;20202;-69
2023/05/17 04:35:54;;;;;;;6.50;3.00;;;6.60;99.90;;;;;;5012209;28;20593;-69
2023/05/17 04:38:19;;;;;;;3.60;2.77;;;6.70;99.90;;;;;;5021639;28;20202;-69
2023/05/17 04:40:45;;;;;;;3.20;2.53;;;6.70;99.90;;;;;;5018926;28;20515;-69
2023/05/17 04:43:10;;;;;;;3.97;2.57;;;6.70;99.90;;;;;;5013035;28;20185;-69
2023/05/17 04:45:36;;;;;;;4.30;2.17;;;6.70;99.90;;;;;;5018699;28;20596;-69
2023/05/17 04:48:02;;;;;;;4.03;2.30;;;6.90;99.90;;;;;;5025779;28;20651;-69
2023/05/17 04:50:28;;;;;;;5.37;2.90;;;7.10;99.90;;;;;;5025127;28;20197;-69
2023/05/17 04:52:53;;;;;;;3.50;2.57;;;7.30;99.90;;;;;;5013584;28;20539;-69
2023/05/17 04:55:19;;;;;;;4.60;2.50;;;7.50;99.90;;;;;;5016499;28;20248;-69
2023/05/17 04:57:44;;;;;;;6.33;2.23;;;7.50;99.90;;;;;;5011667;28;20214;-69
2023/05/17 05:00:10;;;;;;;5.00;2.87;;;7.70;99.90;;;;;;5016673;28;20202;-69
2023/05/17 05:02:36;;;;;;;4.43;2.30;;;7.80;99.90;;;;;;5009267;28;20687;-69
2023/05/17 05:05:03;;;;;;;2.87;2.40;;;7.80;99.90;;;;;;5010601;28;20465;-69
2023/05/17 05:07:29;;;;;;;4.67;2.27;;;7.80;99.90;;;;;;5008557;28;20438;-69
2023/05/17 05:09:55;;;;;;;3.63;2.50;;;8.00;99.90;;;;;;5016148;28;20471;-69
2023/05/17 05:12:21;;;;;;;8.03;3.20;;;7.90;99.90;;;;;;5021243;28;20433;-69
2023/05/17 05:14:46;;;;;;;3.60;3.07;;;8.00;99.90;;;;;;5020384;28;20281;-70
2023/05/17 05:17:12;;;;;;;5.83;2.97;;;8.20;99.90;;;;;;5010954;28;20211;-70
2023/05/17 05:19:37;;;;;;;3.77;2.50;;;8.20;99.90;;;;;;5027811;23;20201;-71
2023/05/17 05:22:03;;;;;;;8.57;2.40;;;8.30;99.90;;;;;;5017049;28;20195;-71
2023/05/17 05:24:28;;;;;;;2.87;2.20;;;8.60;99.90;;;;;;5010516;28;20229;-74
2023/05/17 05:26:54;;;;;;;3.47;2.33;;;8.80;99.90;;;;;;5005799;28;20187;-71
2023/05/17 05:29:20;;;;;;;5.47;2.10;;;9.00;99.90;;;;;;5010265;28;20210;-71
2023/05/17 05:31:46;;;;;;;8.23;2.57;;;9.30;99.90;;;;;;4992444;28;20187;-71
2023/05/17 05:34:11;;;;;;;3.70;2.40;;;9.50;99.90;;;;;;4996453;28;20446;-74
2023/05/17 05:36:37;;;;;;;6.43;2.17;;;9.70;99.90;;;;;;4993039;28;20653;-69
2023/05/17 05:39:02;;;;;;;5.37;3.00;;;9.90;99.90;;;;;;4992436;28;20207;-69
2023/05/17 05:41:28;;;;;;;9.60;3.40;;;9.90;99.90;;;;;;4991238;28;20203;-69
2023/05/17 05:43:54;;;;;;;3.77;1.83;;;9.70;99.90;;;;;;4994089;28;20263;-69
2023/05/17 05:46:19;;;;;;;4.10;2.20;;;9.70;99.90;;;;;;4993677;28;20182;-69
2023/05/17 05:48:45;;;;;;;9.23;2.23;;;9.90;99.90;;;;;;4993812;28;20186;-69
2023/05/17 05:51:10;;;;;;;3.30;2.00;;;9.90;99.90;;;;;;4993981;28;20195;-69
2023/05/17 05:53:37;;;;;;;4.87;2.03;;;10.00;99.90;;;;;;4993159;28;20628;-69
2023/05/17 05:56:03;;;;;;;5.10;2.60;;;10.10;99.90;;;;;;4993703;28;20184;-69
2023/05/17 05:58:30;;;;;;;5.53;2.33;;;10.20;99.90;;;;;;4992853;28;20978;-69
2023/05/17 06:00:56;;;;;;;5.00;2.10;;;10.30;99.90;;;;;;4990603;28;20618;-69
2023/05/17 06:03:22;;;;;;;4.53;2.53;;;10.40;99.90;;;;;;4993691;28;20916;-69
2023/05/17 06:05:48;;;;;;;4.50;2.93;;;10.40;99.90;;;;;;4992975;28;20929;-69
2023/05/17 06:08:13;;;;;;;3.80;2.40;;;10.60;99.90;;;;;;4993462;28;20467;-69
2023/05/17 06:10:39;;;;;;;5.80;2.70;;;10.80;99.90;;;;;;4993752;28;20199;-69
2023/05/17 06:13:04;;;;;;;3.83;2.07;;;10.90;99.90;;;;;;4993795;28;20550;-70
2023/05/17 06:15:30;;;;;;;7.27;2.53;;;11.00;99.90;;;;;;4993115;28;20694;-70
2023/05/17 06:17:56;;;;;;;4.80;2.63;;;11.10;99.90;;;;;;4993328;28;20206;-71
2023/05/17 06:20:21;;;;;;;2.97;2.33;;;11.10;99.90;;;;;;4993082;28;20282;-72
2023/05/17 06:22:47;;;;;;;8.30;2.63;;;11.30;99.90;;;;;;4993363;28;20175;-72
2023/05/17 06:25:12;;;;;;;6.70;2.47;;;11.50;99.90;;;;;;4990800;28;20645;-72
2023/05/17 06:27:38;;;;;;;8.37;3.10;;;11.70;99.90;;;;;;4988292;28;20187;-70
2023/05/17 06:30:04;;;;;;;5.93;3.10;;;11.70;99.90;;;;;;4993103;28;20203;-72
2023/05/17 06:32:30;;;;;;;4.80;2.97;;;11.90;99.90;;;;;;4986499;28;20245;-72
2023/05/17 06:34:56;;;;;;;5.40;3.70;;;11.90;99.90;;;;;;4992835;28;20446;-72
2023/05/17 06:37:22;;;;;;;4.67;3.00;;;12.00;99.90;;;;;;4992785;28;20234;-71
2023/05/17 06:39:50;;;;;;;6.53;2.57;;;11.90;99.90;;;;;;4992536;28;20183;-70
2023/05/17 06:42:16;;;;;;;7.00;2.33;;;11.60;99.90;;;;;;4992933;28;20425;-69
2023/05/17 06:44:42;;;;;;;6.00;2.77;;;11.50;99.90;;;;;;4992338;28;20517;-69
2023/05/17 06:47:08;;;;;;;4.53;2.50;;;11.60;99.90;;;;;;4992624;28;20196;-69
2023/05/17 06:49:33;;;;;;;4.87;2.90;;;11.90;99.90;;;;;;4992183;28;20943;-70
2023/05/17 06:52:02;;;;;;;4.30;2.90;;;12.10;99.90;;;;;;4992823;28;20671;-69
2023/05/17 06:54:29;;;;;;;5.00;3.30;;;12.20;99.90;;;;;;5003430;28;20261;-69
2023/05/17 06:56:58;;;;;;;5.47;3.30;;;12.10;99.90;;;;;;4984769;28;20434;-69
2023/05/17 06:59:23;;;;;;;3.57;2.80;;;12.00;99.90;;;;;;4992590;28;20418;-69
2023/05/17 07:01:48;;;;;;;4.90;3.33;;;12.10;99.90;;;;;;4992489;28;20418;-70
2023/05/17 07:04:14;;;;;;;4.87;3.00;;;12.30;99.90;;;;;;4991878;28;20534;-69
2023/05/17 07:06:40;;;;;;;8.50;4.20;;;12.60;99.90;;;;;;4992535;28;20172;-69
2023/05/17 07:09:05;;;;;;;4.80;2.83;;;12.80;99.90;;;;;;4992392;28;20182;-69
2023/05/17 07:11:31;;;;;;;6.63;3.47;;;12.90;99.90;;;;;;4992299;28;20660;-69
2023/05/17 07:13:57;;;;;;;5.97;3.43;;;13.10;99.90;;;;;;4992349;28;20175;-69
2023/05/17 07:16:22;;;;;;;5.77;3.47;;;13.00;99.90;;;;;;4991830;28;20183;-69
2023/05/17 07:18:48;;;;;;;4.00;3.37;;;13.30;99.90;;;;;;5009513;28;20234;-69
2023/05/17 07:21:13;;;;;;;4.77;3.50;;;13.40;99.90;;;;;;5012173;28;20207;-69
2023/05/17 07:23:39;;;;;;;5.13;3.13;;;13.30;99.90;;;;;;5012196;28;20171;-69
2023/05/17 07:26:04;;;;;;;4.13;3.10;;;13.40;99.90;;;;;;4994733;28;20180;-70
2023/05/17 07:28:30;;;;;;;12.73;3.50;;;13.40;99.90;;;;;;4992238;28;20175;-70
2023/05/17 07:30:56;;;;;;;5.83;3.90;;;13.40;99.90;;;;;;4994626;28;20202;-70
2023/05/17 07:33:21;;;;;;;7.80;3.60;;;13.60;99.90;;;;;;4995629;28;20553;-70
2023/05/17 07:35:47;;;;;;;3.83;3.10;;;13.50;99.90;;;;;;4995998;28;20183;-70
2023/05/17 07:38:12;;;;;;;5.90;3.67;;;13.60;99.90;;;;;;4995824;28;20214;-70
2023/05/17 07:40:38;;;;;;;9.10;3.23;;;13.50;99.90;;;;;;4994390;28;20226;-70
2023/05/17 07:43:03;;;;;;;5.10;3.30;;;13.60;99.90;;;;;;4995393;28;20817;-70
2023/05/17 07:45:29;;;;;;;7.00;4.33;;;13.70;99.90;;;;;;4993276;28;20187;-70
2023/05/17 07:47:54;;;;;;;7.27;3.50;;;13.80;99.90;;;;;;4988392;28;20180;-70
2023/05/17 07:50:20;;;;;;;4.50;3.43;;;13.90;99.90;;;;;;4996070;28;20200;-70
2023/05/17 07:52:47;;;;;;;4.63;3.37;;;13.90;99.90;;;;;;4996429;28;20195;-70
2023/05/17 07:55:12;;;;;;;6.90;4.23;;;14.20;99.90;;;;;;4994793;28;20430;-70
2023/05/17 07:57:38;;;;;;;7.33;3.97;;;14.40;99.90;;;;;;4996166;28;20485;-70
2023/05/17 08:00:05;;;;;;;5.40;3.50;;;14.30;99.90;;;;;;4995616;28;20203;-70
2023/05/17 08:02:30;;;;;;;6.73;3.80;;;14.40;99.90;;;;;;4988962;28;20160;-70
2023/05/17 08:04:56;;;;;;;9.60;4.40;;;14.60;99.90;;;;;;4996163;28;20811;-70
2023/05/17 08:07:21;;;;;;;7.60;3.80;;;14.70;99.90;;;;;;4995936;28;20183;-70
2023/05/17 08:09:47;;;;;;;6.20;3.30;;;14.70;99.90;;;;;;4995694;28;20200;-70
2023/05/17 08:12:12;;;;;;;6.60;4.23;;;15.00;99.90;;;;;;4995063;28;20172;-70
2023/05/17 08:14:38;;;;;;;5.73;4.17;;;15.00;99.90;;;;;;4995318;28;20172;-70
2023/05/17 08:17:04;;;;;;;4.30;3.90;;;15.20;99.90;;;;;;4995833;28;20266;-70
2023/05/17 08:19:30;;;;;;;4.80;3.63;;;15.20;99.90;;;;;;4995191;28;20526;-70
2023/05/17 08:21:55;;;;;;;5.27;4.10;;;15.40;99.90;;;;;;4995629;28;20176;-70
2023/05/17 08:24:21;;;;;;;5.07;3.93;;;15.60;99.90;;;;;;4994725;28;20215;-70
2023/05/17 08:26:46;;;;;;;7.80;4.20;;;16.10;99.90;;;;;;4995463;28;20328;-70
2023/05/17 08:29:12;;;;;;;7.17;4.10;;;16.50;99.90;;;;;;4995013;28;20179;-70
2023/05/17 08:31:37;;;;;;;8.83;4.30;;;16.20;99.90;;;;;;4995026;28;20568;-70
2023/05/17 08:34:03;;;;;;;4.60;4.20;;;16.10;99.90;;;;;;4994574;28;20214;-70
2023/05/17 08:36:29;;;;;;;7.80;4.27;;;16.00;99.90;;;;;;4995289;28;20176;-70
2023/05/17 08:38:54;;;;;;;6.40;4.20;;;16.20;99.90;;;;;;5000780;28;20195;-70
2023/05/17 08:41:20;;;;;;;5.70;4.50;;;16.10;99.90;;;;;;5013964;28;20202;-70
2023/05/17 08:43:50;;;;;;;6.07;4.73;;;15.90;99.90;;;;;;5001524;28;20205;-70
2023/05/17 08:46:20;;;;;;;4.20;3.87;;;15.30;99.90;;;;;;5002846;28;20191;-70
2023/05/17 08:48:49;;;;;;;5.43;4.30;;;15.50;99.90;;;;;;5014654;28;20544;-70
2023/05/17 08:51:16;;;;;;;7.60;4.80;;;15.80;99.90;;;;;;5014568;28;20441;-70
2023/05/17 08:53:45;;;;;;;7.90;4.90;;;15.40;99.90;;;;;;5000022;28;20442;-71
2023/05/17 08:56:13;;;;;;;8.00;4.30;;;15.50;99.90;;;;;;4991910;28;20450;-70
2023/05/17 08:58:41;;;;;;;4.90;4.50;;;15.50;99.90;;;;;;4985453;28;20805;-70
2023/05/17 09:01:08;;;;;;;6.00;4.50;;;16.00;99.90;;;;;;4994962;28;20446;-70
2023/05/17 09:03:35;;;;;;;5.50;4.10;;;15.90;99.90;;;;;;4994131;28;20446;-70
2023/05/17 09:06:01;;;;;;;6.07;4.63;;;15.70;99.90;;;;;;4994921;28;20430;-70
2023/05/17 09:08:29;;;;;;;6.67;4.53;;;15.70;99.90;;;;;;4993456;28;20431;-70
2023/05/17 09:10:58;;;;;;;4.30;3.90;;;15.80;99.90;;;;;;4993588;28;20446;-70
2023/05/17 09:13:23;;;;;;;5.80;4.60;;;15.90;99.90;;;;;;4993233;28;20442;-70
2023/05/17 09:15:49;;;;;;;4.93;4.43;;;15.90;99.90;;;;;;4994448;28;20520;-69
2023/05/17 09:18:15;;;;;;;6.57;4.10;;;15.90;99.90;;;;;;4994405;28;20462;-70
2023/05/17 09:20:41;;;;;;;6.23;3.80;;;15.80;99.90;;;;;;4994456;28;20214;-70
2023/05/17 09:23:09;;;;;;;5.37;4.10;;;15.70;99.90;;;;;;4993613;28;20434;-70
2023/05/17 09:25:36;;;;;;;4.33;3.93;;;15.90;99.90;;;;;;4994403;28;20180;-70
2023/05/17 09:28:08;;;;;;;4.60;4.00;;;16.00;99.90;;;;;;4994540;28;20505;-70
2023/05/17 09:30:38;;;;;;;4.83;3.90;;;16.10;99.90;;;;;;4994533;28;20597;-70
2023/05/17 09:33:08;;;;;;;6.37;3.57;;;16.50;99.90;;;;;;4992556;28;20481;-70
2023/05/17 09:35:37;;;;;;;6.07;3.87;;;16.90;99.60;;;;;;4992856;28;20442;-70
2023/05/17 09:38:12;;;;;;;6.83;4.10;;;17.10;98.70;;;;;;4994037;28;20455;-70
2023/05/17 09:40:43;;;;;;;5.30;4.70;;;17.40;98.10;;;;;;4994475;28;20443;-70
2023/05/17 09:43:09;;;;;;;5.30;4.20;;;17.30;96.50;;;;;;4992889;28;20484;-70
2023/05/17 09:45:35;;;;;;;4.83;3.90;;;17.20;97.40;;;;;;4992818;28;20415;-70
2023/05/17 09:48:17;;;;;;;5.27;3.50;;;16.80;97.80;;;;;;4994216;28;20760;-70
2023/05/17 09:50:50;;;;;;;7.23;4.10;;;16.60;97.50;;;;;;4994218;28;20703;-70
2023/05/17 09:53:24;;;;;;;5.07;4.53;;;16.70;96.00;;;;;;4992041;28;20477;-70
2023/05/17 09:55:52;;;;;;;4.63;3.50;;;17.10;95.30;;;;;;4991634;28;20439;-70
2023/05/17 09:58:18;;;;;;;4.17;3.50;;;17.70;93.70;;;;;;4993467;28;20481;-70
2023/05/17 10:00:45;;;;;;;4.00;3.50;;;18.30;91.90;;;;;;4993701;28;20435;-70
2023/05/17 10:03:12;;;;;;;4.60;4.20;;;19.50;89.30;;;;;;4992602;28;20237;-70
2023/05/17 10:05:41;;;;;;;5.03;4.07;;;20.30;82.40;;;;;;4993000;28;20806;-70
2023/05/17 10:08:06;;;;;;;5.10;3.80;;;21.00;77.70;;;;;;4993624;28;20494;-70
2023/05/17 10:10:32;;;;;;;5.00;3.73;;;21.50;72.50;;;;;;4993451;28;20589;-70
2023/05/17 10:12:59;;;;;;;4.37;3.33;;;22.30;68.00;;;;;;4992705;28;20668;-71
2023/05/17 10:15:26;;;;;;;4.10;3.70;;;23.50;62.20;;;;;;4993308;28;20244;-70
2023/05/17 10:17:52;;;;;;;5.33;3.77;;;23.60;58.30;;;;;;4992741;28;20558;-68
2023/05/17 10:20:20;;;;;;;4.87;3.43;;;22.70;57.90;;;;;;4992981;28;20886;-70
2023/05/17 10:22:46;;;;;;;5.50;3.60;;;21.90;58.70;;;;;;4992390;28;20442;-71
2023/05/17 10:25:12;;;;;;;6.87;4.03;;;20.70;60.80;;;;;;4993267;28;20444;-71
2023/05/17 10:27:38;;;;;;;4.73;3.87;;;20.00;63.50;;;;;;4984449;28;20449;-70
2023/05/17 10:30:07;;;;;;;4.10;3.40;;;19.30;65.00;;;;;;4983096;28;20435;-70
2023/05/17 10:32:33;;;;;;;7.40;4.40;;;19.40;66.30;;;;;;4986300;28;20175;-70
2023/05/17 10:35:02;;;;;;;4.47;3.53;;;20.60;64.80;;;;;;4993083;28;20509;-73
2023/05/17 10:37:29;;;;;;;7.17;4.73;;;22.00;61.30;;;;;;4992817;28;20199;-73
2023/05/17 10:39:55;;;;;;;5.83;4.00;;;23.00;60.90;;;;;;4992787;28;20439;-70
2023/05/17 10:42:22;;;;;;;6.77;4.20;;;22.30;59.60;;;;;;4992153;28;20485;-70
2023/05/17 10:44:47;;;;;;;4.90;4.17;;;21.60;59.90;;;;;;4994124;28;20450;-70
2023/05/17 10:47:14;;;;;;;5.30;4.13;;;20.10;60.50;;;;;;5012669;28;20863;-70
2023/05/17 10:49:40;;;;;;;5.10;4.20;;;19.10;64.50;;;;;;5006939;28;20203;-70
2023/05/17 10:52:17;;;;;;;5.50;4.77;;;18.40;67.70;;;;;;4992144;28;20477;-70
2023/05/17 10:54:46;;;;;;;5.90;4.87;;;17.90;69.00;;;;;;4992817;28;20425;-69
2023/05/17 10:57:41;;;;;;;7.80;5.40;;;17.60;71.20;;;;;;4985249;28;20818;-70
2023/05/17 11:00:11;;;;;;;6.67;4.03;;;17.70;73.00;;;;;;4983544;28;20446;-69
2023/05/17 11:02:41;;;;;;;6.90;3.93;;;19.00;69.70;;;;;;4991882;28;20434;-70
2023/05/17 11:05:21;;;;;;;7.37;4.70;;;19.40;68.50;;;;;;4992124;28;20411;-70
2023/05/17 11:07:47;;;;;;;6.33;4.10;;;19.60;67.50;;;;;;4991915;28;20528;-69
2023/05/17 11:10:13;;;;;;;7.10;4.87;;;19.50;69.80;;;;;;4992428;28;20447;-70
2023/05/17 11:12:52;;;;;;;5.00;4.23;;;20.70;66.50;;;;;;4992753;28;20871;-70
2023/05/17 11:15:22;;;;;;;6.50;5.33;;;20.90;64.00;;;;;;4992737;28;20260;-70
2023/05/17 11:17:52;;;;;;;5.10;4.40;;;20.10;64.20;;;;;;4990623;28;20477;-70
2023/05/17 11:20:24;;;;;;;6.07;4.63;;;19.10;66.90;;;;;;5011105;23;20486;-74
2023/05/17 11:22:58;;;;;;;6.07;4.60;;;18.40;69.40;;;;;;5004354;28;20450;-74
2023/05/17 11:25:31;;;;;;;5.57;5.03;;;18.00;70.40;;;;;;5007692;28;20750;-75
2023/05/17 11:27:57;;;;;;;7.83;4.60;;;17.60;71.30;;;;;;4999986;28;20446;-74
2023/05/17 11:30:27;;;;;;;8.40;4.80;;;17.40;72.90;;;;;;5005663;28;20452;-74
2023/05/17 11:33:04;;;;;;;8.80;5.20;;;17.50;72.60;;;;;;4992556;28;20787;-74
2023/05/17 11:35:37;;;;;;;6.00;3.97;;;17.50;71.60;;;;;;4992719;28;20489;-74
2023/05/17 11:38:20;;;;;;;11.00;5.03;;;17.60;71.30;;;;;;4990918;28;20470;-74
2023/05/17 11:40:47;;;;;;;6.37;4.13;;;17.50;72.00;;;;;;4991017;28;20574;-74
2023/05/17 11:43:17;;;;;;;8.57;4.40;;;17.40;72.20;;;;;;4992682;28;20806;-74
2023/05/17 11:45:49;;;;;;;6.63;4.80;;;17.70;72.10;;;;;;4992436;28;20421;-74
2023/05/17 11:48:16;;;;;;;4.63;3.70;;;17.70;71.50;;;;;;4991419;28;20935;-74
2023/05/17 11:50:44;;;;;;;4.90;4.00;;;17.50;73.60;;;;;;4992363;28;20442;-75
2023/05/17 11:53:10;;;;;;;6.80;5.37;;;17.30;74.50;;;;;;4992344;28;20421;-73
2023/05/17 11:55:38;;;;;;;7.70;5.10;;;16.60;78.70;;;;;;4992308;28;20426;-74
2023/05/17 11:58:07;;;;;;;5.80;4.70;;;16.20;85.00;;;;;;4990929;28;20458;-73
2023/05/17 12:00:32;;;;;;;8.63;5.00;;;16.10;86.50;;;;;;4991738;28;20546;-73
2023/05/17 12:02:58;;;;;;;6.73;4.87;;;15.80;89.40;;;;;;4991273;28;20868;-74
2023/05/17 12:05:24;;;;;;;4.90;4.20;;;15.80;90.10;;;;;;4992488;28;20254;-73
2023/05/17 12:07:51;;;;;;;4.87;4.33;;;16.00;87.50;;;;;;4992451;28;20168;-75
2023/05/17 12:10:17;;;;;;;4.20;3.87;;;16.00;86.70;;;;;;4989291;28;20207;-73
2023/05/17 12:12:43;;;;;;;7.80;4.70;;;16.00;88.60;;;;;;4992170;28;20870;-74
2023/05/17 12:15:09;;;;;;;5.83;5.23;;;16.20;85.90;;;;;;4992239;28;20258;-75
2023/05/17 12:17:40;;;;;;;7.03;4.40;;;16.40;85.10;;;;;;4995306;28;20188;-74
2023/05/17 12:20:07;;;;;;;5.60;4.93;;;16.60;82.00;;;;;;4993513;28;20454;-73
2023/05/17 12:22:33;;;;;;;5.63;4.53;;;16.50;83.60;;;;;;4994859;28;20492;-75
2023/05/17 12:24:58;;;;;;;5.07;3.60;;;16.70;82.50;;;;;;4995772;28;20505;-73
2023/05/17 12:27:25;;;;;;;5.00;4.10;;;16.80;82.10;;;;;;4995691;28;20184;-75
2023/05/17 12:29:52;;;;;;;4.47;3.90;;;16.60;81.80;;;;;;4994486;28;20179;-74
2023/05/17 12:32:18;;;;;;;9.30;5.30;;;17.10;80.20;;;;;;4995379;28;20473;-74
2023/05/17 12:34:44;;;;;;;7.33;4.93;;;16.90;80.60;;;;;;4995422;28;20513;-74
2023/05/17 12:37:11;;;;;;;7.43;4.50;;;17.10;79.20;;;;;;4995336;28;20561;-73
2023/05/17 12:39:38;;;;;;;5.60;4.33;;;17.00;79.20;;;;;;4993261;28;20438;-74
2023/05/17 12:42:04;;;;;;;5.50;4.87;;;17.20;78.30;;;;;;4995455;28;20484;-74
2023/05/17 12:44:29;;;;;;;5.47;4.13;;;17.30;76.70;;;;;;4994511;28;20438;-74
2023/05/17 12:46:56;;;;;;;5.17;4.67;;;17.70;76.60;;;;;;4994020;28;20945;-74
2023/05/17 12:49:22;;;;;;;7.03;5.27;;;18.40;74.40;;;;;;4994774;28;20195;-75